logo
Search for airport 
image banner adimage banner adimage banner ad
image banner ad

FAAERD - Aeroden

Located in Brits, South Africa

ICAO - , IATA -

Data provided by Airmate  

General information

Coordinates: S25°43'20" E27°44'22"
Elevation is 4050 feet MSL.
Magnetic variation is -18° East
View others Airports in North-West

Operational data

Special qualification required
Current time UTC:
Current local time:
Weather at : FALA - Lanseria International ( 31 km )
METAR: FALA 150900Z 34009KT 310V020 9999 SCT025 18/11 Q1028 NOSIG
TAF: TAF FALA 150400Z 1506/1606 VRB03KT CAVOK TX20/1512Z TN12/1603Z FM150800 34008KT 9999 SCT020 PROB30 TEMPO 1509/1520 5000 TSRA FEW035CB PROB30 TEMPO 1523/1606 -TSRA FEW030CB
View NOTAMs / SUP AIP / TFR affecting this airport [VIEW]
Communications frequencies: [VIEW]

Runways:

RWY identifierQFULength (ft)Width (ft)SurfaceLDA (ft)
18171°249349SAND
36351°249349SAND
01352°00GRAS
19172°00GRAS

Airport contact information

Address: Brits South Africa

Satellite view of FAAERD